sensor_id;sensor_type;location;lat;lon;timestamp;P1;durP1;ratioP1;P2;durP2;ratioP2
19645;SDS011;9971;52.446;13.452;2023-03-03T00:02:02;15.70;;;14.03;;
19645;SDS011;9971;52.446;13.452;2023-03-03T00:07:05;17.15;;;14.85;;
19645;SDS011;9971;52.446;13.452;2023-03-03T00:12:17;18.42;;;15.13;;
19645;SDS011;9971;52.446;13.452;2023-03-03T00:17:30;16.43;;;13.93;;
19645;SDS011;9971;52.446;13.452;2023-03-03T00:22:35;15.90;;;12.47;;
19645;SDS011;9971;52.446;13.452;2023-03-03T00:27:36;15.13;;;12.63;;
19645;SDS011;9971;52.446;13.452;2023-03-03T00:32:42;13.88;;;11.53;;
19645;SDS011;9971;52.446;13.452;2023-03-03T00:37:43;13.23;;;11.23;;
19645;SDS011;9971;52.446;13.452;2023-03-03T00:42:46;13.28;;;11.05;;
19645;SDS011;9971;52.446;13.452;2023-03-03T00:47:47;15.20;;;11.70;;
19645;SDS011;9971;52.446;13.452;2023-03-03T00:52:52;14.63;;;11.73;;
19645;SDS011;9971;52.446;13.452;2023-03-03T00:57:54;15.20;;;10.90;;
19645;SDS011;9971;52.446;13.452;2023-03-03T01:02:56;13.20;;;10.98;;
19645;SDS011;9971;52.446;13.452;2023-03-03T01:07:58;14.43;;;11.15;;
19645;SDS011;9971;52.446;13.452;2023-03-03T01:13:01;14.50;;;11.08;;
19645;SDS011;9971;52.446;13.452;2023-03-03T01:18:03;15.05;;;11.22;;
19645;SDS011;9971;52.446;13.452;2023-03-03T01:23:06;13.55;;;10.65;;
19645;SDS011;9971;52.446;13.452;2023-03-03T01:28:09;14.75;;;11.33;;
19645;SDS011;9971;52.446;13.452;2023-03-03T01:33:11;14.13;;;11.85;;
19645;SDS011;9971;52.446;13.452;2023-03-03T01:38:14;14.90;;;11.57;;
19645;SDS011;9971;52.446;13.452;2023-03-03T01:43:16;15.48;;;12.20;;
19645;SDS011;9971;52.446;13.452;2023-03-03T01:48:22;16.23;;;12.70;;
19645;SDS011;9971;52.446;13.452;2023-03-03T01:53:25;14.45;;;12.37;;
19645;SDS011;9971;52.446;13.452;2023-03-03T01:58:35;16.47;;;13.53;;
19645;SDS011;9971;52.446;13.452;2023-03-03T02:03:36;20.62;;;14.23;;
19645;SDS011;9971;52.446;13.452;2023-03-03T02:08:45;16.30;;;14.07;;
19645;SDS011;9971;52.446;13.452;2023-03-03T02:13:46;18.63;;;15.37;;
19645;SDS011;9971;52.446;13.452;2023-03-03T02:18:49;19.05;;;14.43;;
19645;SDS011;9971;52.446;13.452;2023-03-03T02:23:56;17.77;;;15.18;;
19645;SDS011;9971;52.446;13.452;2023-03-03T02:29:04;19.03;;;16.20;;
19645;SDS011;9971;52.446;13.452;2023-03-03T02:34:06;19.15;;;15.03;;
19645;SDS011;9971;52.446;13.452;2023-03-03T02:39:12;20.20;;;14.63;;
19645;SDS011;9971;52.446;13.452;2023-03-03T02:44:15;19.00;;;14.97;;
19645;SDS011;9971;52.446;13.452;2023-03-03T02:49:18;17.82;;;15.03;;
19645;SDS011;9971;52.446;13.452;2023-03-03T02:54:21;19.40;;;16.05;;
19645;SDS011;9971;52.446;13.452;2023-03-03T02:59:22;18.75;;;15.30;;
19645;SDS011;9971;52.446;13.452;2023-03-03T03:04:25;17.23;;;13.88;;
19645;SDS011;9971;52.446;13.452;2023-03-03T03:09:27;17.20;;;14.33;;
19645;SDS011;9971;52.446;13.452;2023-03-03T03:14:29;17.12;;;14.35;;
19645;SDS011;9971;52.446;13.452;2023-03-03T03:19:32;15.90;;;14.10;;
19645;SDS011;9971;52.446;13.452;2023-03-03T03:24:35;14.95;;;12.85;;
19645;SDS011;9971;52.446;13.452;2023-03-03T03:29:38;18.23;;;14.60;;
19645;SDS011;9971;52.446;13.452;2023-03-03T03:34:41;15.60;;;13.65;;
19645;SDS011;9971;52.446;13.452;2023-03-03T03:39:44;19.98;;;14.63;;
19645;SDS011;9971;52.446;13.452;2023-03-03T03:44:47;17.45;;;14.00;;
19645;SDS011;9971;52.446;13.452;2023-03-03T03:49:50;16.82;;;15.03;;
19645;SDS011;9971;52.446;13.452;2023-03-03T03:54:53;18.77;;;15.35;;
19645;SDS011;9971;52.446;13.452;2023-03-03T03:59:56;17.98;;;14.20;;
19645;SDS011;9971;52.446;13.452;2023-03-03T04:04:59;18.35;;;15.68;;
19645;SDS011;9971;52.446;13.452;2023-03-03T04:10:02;17.07;;;13.90;;
19645;SDS011;9971;52.446;13.452;2023-03-03T04:15:05;17.75;;;14.58;;
19645;SDS011;9971;52.446;13.452;2023-03-03T04:20:08;17.90;;;13.30;;
19645;SDS011;9971;52.446;13.452;2023-03-03T04:25:13;16.75;;;14.07;;
19645;SDS011;9971;52.446;13.452;2023-03-03T04:30:14;16.32;;;13.08;;
19645;SDS011;9971;52.446;13.452;2023-03-03T04:35:16;17.32;;;13.18;;
19645;SDS011;9971;52.446;13.452;2023-03-03T04:40:19;17.52;;;13.43;;
19645;SDS011;9971;52.446;13.452;2023-03-03T04:45:22;17.27;;;13.68;;
19645;SDS011;9971;52.446;13.452;2023-03-03T04:50:25;16.70;;;13.32;;
19645;SDS011;9971;52.446;13.452;2023-03-03T04:55:27;16.95;;;13.80;;
19645;SDS011;9971;52.446;13.452;2023-03-03T05:00:30;19.40;;;15.18;;
19645;SDS011;9971;52.446;13.452;2023-03-03T05:05:33;19.05;;;14.73;;
19645;SDS011;9971;52.446;13.452;2023-03-03T05:10:36;21.20;;;16.42;;
19645;SDS011;9971;52.446;13.452;2023-03-03T05:15:39;19.90;;;15.58;;
19645;SDS011;9971;52.446;13.452;2023-03-03T05:20:42;17.85;;;13.20;;
19645;SDS011;9971;52.446;13.452;2023-03-03T05:25:46;19.10;;;13.70;;
19645;SDS011;9971;52.446;13.452;2023-03-03T05:30:48;20.62;;;14.05;;
19645;SDS011;9971;52.446;13.452;2023-03-03T05:35:52;17.62;;;13.53;;
19645;SDS011;9971;52.446;13.452;2023-03-03T05:40:53;18.37;;;13.10;;
19645;SDS011;9971;52.446;13.452;2023-03-03T05:45:56;16.82;;;12.80;;
19645;SDS011;9971;52.446;13.452;2023-03-03T05:50:58;20.90;;;14.78;;
19645;SDS011;9971;52.446;13.452;2023-03-03T05:56:01;16.37;;;12.70;;
19645;SDS011;9971;52.446;13.452;2023-03-03T06:01:04;18.30;;;13.18;;
19645;SDS011;9971;52.446;13.452;2023-03-03T06:06:06;17.82;;;12.28;;
19645;SDS011;9971;52.446;13.452;2023-03-03T06:11:09;19.80;;;12.80;;
19645;SDS011;9971;52.446;13.452;2023-03-03T06:16:11;16.70;;;13.10;;
19645;SDS011;9971;52.446;13.452;2023-03-03T06:21:14;16.73;;;12.90;;
19645;SDS011;9971;52.446;13.452;2023-03-03T06:26:17;16.73;;;12.30;;
19645;SDS011;9971;52.446;13.452;2023-03-03T06:31:20;17.00;;;12.88;;
19645;SDS011;9971;52.446;13.452;2023-03-03T06:36:23;16.93;;;12.33;;
19645;SDS011;9971;52.446;13.452;2023-03-03T06:41:25;17.12;;;12.35;;
19645;SDS011;9971;52.446;13.452;2023-03-03T06:46:28;18.27;;;13.38;;
19645;SDS011;9971;52.446;13.452;2023-03-03T06:51:32;20.80;;;14.75;;
19645;SDS011;9971;52.446;13.452;2023-03-03T06:56:34;18.17;;;12.85;;
19645;SDS011;9971;52.446;13.452;2023-03-03T07:01:36;18.52;;;13.18;;
19645;SDS011;9971;52.446;13.452;2023-03-03T07:06:38;18.55;;;13.60;;
19645;SDS011;9971;52.446;13.452;2023-03-03T07:11:42;21.02;;;14.15;;
19645;SDS011;9971;52.446;13.452;2023-03-03T07:16:45;16.85;;;13.48;;
19645;SDS011;9971;52.446;13.452;2023-03-03T07:21:47;15.28;;;11.08;;
19645;SDS011;9971;52.446;13.452;2023-03-03T07:26:50;13.03;;;10.48;;
19645;SDS011;9971;52.446;13.452;2023-03-03T07:31:54;16.65;;;12.30;;
19645;SDS011;9971;52.446;13.452;2023-03-03T07:36:57;13.50;;;10.88;;
19645;SDS011;9971;52.446;13.452;2023-03-03T07:42:13;17.15;;;12.70;;
19645;SDS011;9971;52.446;13.452;2023-03-03T07:47:30;17.77;;;12.73;;
19645;SDS011;9971;52.446;13.452;2023-03-03T07:52:38;16.25;;;12.93;;
19645;SDS011;9971;52.446;13.452;2023-03-03T07:57:37;17.33;;;12.07;;
19645;SDS011;9971;52.446;13.452;2023-03-03T08:02:41;18.75;;;12.85;;
19645;SDS011;9971;52.446;13.452;2023-03-03T08:07:42;19.55;;;12.37;;
19645;SDS011;9971;52.446;13.452;2023-03-03T08:12:44;16.40;;;11.28;;
19645;SDS011;9971;52.446;13.452;2023-03-03T08:17:47;17.67;;;12.15;;
19645;SDS011;9971;52.446;13.452;2023-03-03T08:22:49;14.28;;;10.70;;
19645;SDS011;9971;52.446;13.452;2023-03-03T08:27:52;13.05;;;10.23;;
19645;SDS011;9971;52.446;13.452;2023-03-03T08:32:55;15.28;;;10.45;;
19645;SDS011;9971;52.446;13.452;2023-03-03T08:37:58;14.75;;;10.48;;
19645;SDS011;9971;52.446;13.452;2023-03-03T08:43:00;12.43;;;9.43;;
19645;SDS011;9971;52.446;13.452;2023-03-03T08:48:03;11.43;;;9.17;;
19645;SDS011;9971;52.446;13.452;2023-03-03T08:53:05;12.80;;;10.28;;
19645;SDS011;9971;52.446;13.452;2023-03-03T08:58:07;9.63;;;7.70;;
19645;SDS011;9971;52.446;13.452;2023-03-03T09:03:09;12.73;;;9.20;;
19645;SDS011;9971;52.446;13.452;2023-03-03T09:08:12;11.93;;;8.83;;
19645;SDS011;9971;52.446;13.452;2023-03-03T09:13:15;9.55;;;7.97;;
19645;SDS011;9971;52.446;13.452;2023-03-03T09:18:17;11.53;;;8.53;;
19645;SDS011;9971;52.446;13.452;2023-03-03T09:23:30;9.87;;;8.57;;
19645;SDS011;9971;52.446;13.452;2023-03-03T09:28:39;9.13;;;7.53;;
19645;SDS011;9971;52.446;13.452;2023-03-03T09:33:42;9.30;;;7.40;;
19645;SDS011;9971;52.446;13.452;2023-03-03T09:38:43;11.63;;;8.47;;
19645;SDS011;9971;52.446;13.452;2023-03-03T09:54:41;7.73;;;6.93;;
19645;SDS011;9971;52.446;13.452;2023-03-03T09:59:59;7.22;;;6.42;;
19645;SDS011;9971;52.446;13.452;2023-03-03T10:05:52;1.00;;;1.00;;
19645;SDS011;9971;52.446;13.452;2023-03-03T10:10:42;8.15;;;6.70;;
19645;SDS011;9971;52.446;13.452;2023-03-03T10:15:58;7.60;;;6.77;;
19645;SDS011;9971;52.446;13.452;2023-03-03T10:21:11;7.10;;;6.47;;
19645;SDS011;9971;52.446;13.452;2023-03-03T10:36:37;5.93;;;5.33;;
19645;SDS011;9971;52.446;13.452;2023-03-03T10:41:46;5.77;;;5.20;;
19645;SDS011;9971;52.446;13.452;2023-03-03T10:46:50;6.78;;;5.53;;
19645;SDS011;9971;52.446;13.452;2023-03-03T11:02:43;5.27;;;4.63;;
19645;SDS011;9971;52.446;13.452;2023-03-03T11:07:42;5.10;;;4.60;;
19645;SDS011;9971;52.446;13.452;2023-03-03T11:12:48;3.17;;;2.90;;
19645;SDS011;9971;52.446;13.452;2023-03-03T11:18:10;5.33;;;4.83;;
19645;SDS011;9971;52.446;13.452;2023-03-03T11:23:19;6.10;;;5.50;;
19645;SDS011;9971;52.446;13.452;2023-03-03T11:28:26;5.83;;;5.30;;
19645;SDS011;9971;52.446;13.452;2023-03-03T11:33:37;5.90;;;5.40;;
19645;SDS011;9971;52.446;13.452;2023-03-03T11:38:44;5.05;;;4.62;;
19645;SDS011;9971;52.446;13.452;2023-03-03T11:43:49;5.27;;;4.80;;
19645;SDS011;9971;52.446;13.452;2023-03-03T11:49:05;6.03;;;5.37;;
19645;SDS011;9971;52.446;13.452;2023-03-03T11:54:29;7.73;;;6.30;;
19645;SDS011;9971;52.446;13.452;2023-03-03T11:59:34;7.60;;;6.90;;
19645;SDS011;9971;52.446;13.452;2023-03-03T12:04:36;8.30;;;7.37;;
19645;SDS011;9971;52.446;13.452;2023-03-03T12:09:55;7.40;;;6.57;;
19645;SDS011;9971;52.446;13.452;2023-03-03T12:16:21;8.23;;;7.08;;
19645;SDS011;9971;52.446;13.452;2023-03-03T12:20:54;8.80;;;7.90;;
19645;SDS011;9971;52.446;13.452;2023-03-03T12:26:01;7.90;;;7.07;;
19645;SDS011;9971;52.446;13.452;2023-03-03T12:31:37;7.43;;;5.80;;
19645;SDS011;9971;52.446;13.452;2023-03-03T12:36:35;8.17;;;7.27;;
19645;SDS011;9971;52.446;13.452;2023-03-03T12:41:43;8.70;;;7.63;;
19645;SDS011;9971;52.446;13.452;2023-03-03T12:46:55;7.70;;;6.87;;
19645;SDS011;9971;52.446;13.452;2023-03-03T12:52:03;8.93;;;7.43;;
19645;SDS011;9971;52.446;13.452;2023-03-03T12:57:10;7.95;;;7.15;;
19645;SDS011;9971;52.446;13.452;2023-03-03T13:02:19;9.47;;;7.80;;
19645;SDS011;9971;52.446;13.452;2023-03-03T13:07:22;8.83;;;7.10;;
19645;SDS011;9971;52.446;13.452;2023-03-03T13:12:56;8.77;;;7.87;;
19645;SDS011;9971;52.446;13.452;2023-03-03T13:17:42;8.83;;;7.63;;
19645;SDS011;9971;52.446;13.452;2023-03-03T13:22:53;9.00;;;8.08;;
19645;SDS011;9971;52.446;13.452;2023-03-03T13:27:56;8.40;;;6.53;;
19645;SDS011;9971;52.446;13.452;2023-03-03T13:38:30;10.23;;;7.57;;
19645;SDS011;9971;52.446;13.452;2023-03-03T13:43:34;9.07;;;7.07;;
19645;SDS011;9971;52.446;13.452;2023-03-03T13:48:42;9.80;;;8.50;;
19645;SDS011;9971;52.446;13.452;2023-03-03T13:53:48;9.00;;;7.80;;
19645;SDS011;9971;52.446;13.452;2023-03-03T13:58:56;8.47;;;6.30;;
19645;SDS011;9971;52.446;13.452;2023-03-03T14:09:34;10.97;;;7.47;;
19645;SDS011;9971;52.446;13.452;2023-03-03T14:20:18;9.03;;;7.97;;
19645;SDS011;9971;52.446;13.452;2023-03-03T14:25:19;6.75;;;5.85;;
19645;SDS011;9971;52.446;13.452;2023-03-03T14:30:25;7.60;;;6.80;;
19645;SDS011;9971;52.446;13.452;2023-03-03T14:35:28;8.93;;;7.93;;
19645;SDS011;9971;52.446;13.452;2023-03-03T14:40:31;7.57;;;6.63;;
19645;SDS011;9971;52.446;13.452;2023-03-03T14:45:34;9.00;;;8.10;;
19645;SDS011;9971;52.446;13.452;2023-03-03T14:50:37;8.67;;;7.73;;
19645;SDS011;9971;52.446;13.452;2023-03-03T14:55:38;7.80;;;6.92;;
19645;SDS011;9971;52.446;13.452;2023-03-03T15:00:39;7.97;;;7.17;;
19645;SDS011;9971;52.446;13.452;2023-03-03T15:05:49;8.33;;;7.15;;
19645;SDS011;9971;52.446;13.452;2023-03-03T15:10:50;7.85;;;6.97;;
19645;SDS011;9971;52.446;13.452;2023-03-03T15:16:02;7.17;;;6.50;;
19645;SDS011;9971;52.446;13.452;2023-03-03T15:21:03;6.83;;;6.12;;
19645;SDS011;9971;52.446;13.452;2023-03-03T15:26:13;6.77;;;6.07;;
19645;SDS011;9971;52.446;13.452;2023-03-03T15:31:18;7.60;;;6.83;;
19645;SDS011;9971;52.446;13.452;2023-03-03T15:36:28;9.28;;;7.50;;
19645;SDS011;9971;52.446;13.452;2023-03-03T15:41:36;8.40;;;7.55;;
19645;SDS011;9971;52.446;13.452;2023-03-03T15:46:48;9.28;;;6.70;;
19645;SDS011;9971;52.446;13.452;2023-03-03T15:51:56;7.22;;;6.53;;
19645;SDS011;9971;52.446;13.452;2023-03-03T15:56:58;6.97;;;6.27;;
19645;SDS011;9971;52.446;13.452;2023-03-03T16:02:02;9.00;;;7.90;;
19645;SDS011;9971;52.446;13.452;2023-03-03T16:07:17;8.77;;;7.83;;
19645;SDS011;9971;52.446;13.452;2023-03-03T16:17:57;9.43;;;8.53;;
19645;SDS011;9971;52.446;13.452;2023-03-03T16:23:04;6.90;;;6.17;;
19645;SDS011;9971;52.446;13.452;2023-03-03T16:28:07;6.45;;;5.65;;
19645;SDS011;9971;52.446;13.452;2023-03-03T16:33:10;5.83;;;5.23;;
19645;SDS011;9971;52.446;13.452;2023-03-03T16:38:30;6.47;;;5.87;;
19645;SDS011;9971;52.446;13.452;2023-03-03T16:43:42;7.28;;;6.53;;
19645;SDS011;9971;52.446;13.452;2023-03-03T16:48:52;7.53;;;6.43;;
19645;SDS011;9971;52.446;13.452;2023-03-03T16:53:57;7.57;;;6.70;;
19645;SDS011;9971;52.446;13.452;2023-03-03T16:59:08;9.57;;;8.77;;
19645;SDS011;9971;52.446;13.452;2023-03-03T17:04:30;8.37;;;7.57;;
19645;SDS011;9971;52.446;13.452;2023-03-03T17:09:41;7.10;;;6.47;;
19645;SDS011;9971;52.446;13.452;2023-03-03T17:14:58;8.35;;;7.45;;
19645;SDS011;9971;52.446;13.452;2023-03-03T17:20:04;7.90;;;7.17;;
19645;SDS011;9971;52.446;13.452;2023-03-03T17:25:14;6.87;;;6.20;;
19645;SDS011;9971;52.446;13.452;2023-03-03T17:30:25;7.40;;;6.60;;
19645;SDS011;9971;52.446;13.452;2023-03-03T17:35:34;7.83;;;6.83;;
19645;SDS011;9971;52.446;13.452;2023-03-03T17:46:01;8.17;;;7.37;;
19645;SDS011;9971;52.446;13.452;2023-03-03T17:56:26;9.07;;;8.13;;
19645;SDS011;9971;52.446;13.452;2023-03-03T18:01:48;7.83;;;7.13;;
19645;SDS011;9971;52.446;13.452;2023-03-03T18:07:00;7.97;;;7.20;;
19645;SDS011;9971;52.446;13.452;2023-03-03T18:12:44;6.85;;;6.25;;
19645;SDS011;9971;52.446;13.452;2023-03-03T18:17:32;7.28;;;6.58;;
19645;SDS011;9971;52.446;13.452;2023-03-03T18:27:43;7.83;;;7.07;;
19645;SDS011;9971;52.446;13.452;2023-03-03T18:33:01;7.97;;;6.90;;
19645;SDS011;9971;52.446;13.452;2023-03-03T18:53:58;8.43;;;7.53;;
19645;SDS011;9971;52.446;13.452;2023-03-03T18:59:00;9.70;;;8.47;;
19645;SDS011;9971;52.446;13.452;2023-03-03T19:04:14;9.53;;;8.03;;
19645;SDS011;9971;52.446;13.452;2023-03-03T19:09:42;8.83;;;8.03;;
19645;SDS011;9971;52.446;13.452;2023-03-03T19:14:38;8.80;;;7.90;;
19645;SDS011;9971;52.446;13.452;2023-03-03T19:19:57;8.68;;;7.87;;
19645;SDS011;9971;52.446;13.452;2023-03-03T19:24:41;8.60;;;7.70;;
19645;SDS011;9971;52.446;13.452;2023-03-03T19:29:50;7.93;;;7.23;;
19645;SDS011;9971;52.446;13.452;2023-03-03T19:34:53;9.58;;;8.63;;
19645;SDS011;9971;52.446;13.452;2023-03-03T19:40:02;8.73;;;7.70;;
19645;SDS011;9971;52.446;13.452;2023-03-03T19:45:09;8.83;;;8.03;;
19645;SDS011;9971;52.446;13.452;2023-03-03T19:50:45;8.97;;;8.07;;
19645;SDS011;9971;52.446;13.452;2023-03-03T19:56:39;8.60;;;7.40;;
19645;SDS011;9971;52.446;13.452;2023-03-03T20:00:59;8.20;;;7.40;;
19645;SDS011;9971;52.446;13.452;2023-03-03T20:06:06;8.83;;;7.93;;
19645;SDS011;9971;52.446;13.452;2023-03-03T20:11:09;8.50;;;7.63;;
19645;SDS011;9971;52.446;13.452;2023-03-03T20:16:22;9.80;;;8.83;;
19645;SDS011;9971;52.446;13.452;2023-03-03T20:21:47;10.35;;;9.35;;
19645;SDS011;9971;52.446;13.452;2023-03-03T20:26:57;9.43;;;8.50;;
19645;SDS011;9971;52.446;13.452;2023-03-03T20:37:09;9.40;;;8.43;;
19645;SDS011;9971;52.446;13.452;2023-03-03T20:42:14;11.80;;;9.80;;
19645;SDS011;9971;52.446;13.452;2023-03-03T20:47:24;10.68;;;8.73;;
19645;SDS011;9971;52.446;13.452;2023-03-03T20:52:39;9.33;;;8.00;;
19645;SDS011;9971;52.446;13.452;2023-03-03T20:58:14;11.00;;;8.50;;
19645;SDS011;9971;52.446;13.452;2023-03-03T21:03:16;10.37;;;8.20;;
19645;SDS011;9971;52.446;13.452;2023-03-03T21:13:40;8.10;;;7.30;;
19645;SDS011;9971;52.446;13.452;2023-03-03T21:18:41;6.55;;;5.85;;
19645;SDS011;9971;52.446;13.452;2023-03-03T21:23:43;7.83;;;7.03;;
19645;SDS011;9971;52.446;13.452;2023-03-03T21:29:04;9.13;;;7.72;;
19645;SDS011;9971;52.446;13.452;2023-03-03T21:34:15;8.43;;;7.33;;
19645;SDS011;9971;52.446;13.452;2023-03-03T21:39:26;8.03;;;6.47;;
19645;SDS011;9971;52.446;13.452;2023-03-03T21:44:30;10.27;;;6.87;;
19645;SDS011;9971;52.446;13.452;2023-03-03T21:49:32;8.33;;;7.43;;
19645;SDS011;9971;52.446;13.452;2023-03-03T21:54:34;7.07;;;5.53;;
19645;SDS011;9971;52.446;13.452;2023-03-03T21:59:37;7.22;;;6.45;;
19645;SDS011;9971;52.446;13.452;2023-03-03T22:04:39;7.33;;;6.23;;
19645;SDS011;9971;52.446;13.452;2023-03-03T22:09:41;10.08;;;7.00;;
19645;SDS011;9971;52.446;13.452;2023-03-03T22:14:43;9.58;;;7.53;;
19645;SDS011;9971;52.446;13.452;2023-03-03T22:19:46;9.45;;;7.50;;
19645;SDS011;9971;52.446;13.452;2023-03-03T22:24:48;9.58;;;7.75;;
19645;SDS011;9971;52.446;13.452;2023-03-03T22:29:51;8.78;;;6.90;;
19645;SDS011;9971;52.446;13.452;2023-03-03T22:34:53;10.40;;;8.70;;
19645;SDS011;9971;52.446;13.452;2023-03-03T22:39:55;10.50;;;9.10;;
19645;SDS011;9971;52.446;13.452;2023-03-03T22:44:58;12.37;;;10.38;;
19645;SDS011;9971;52.446;13.452;2023-03-03T22:50:00;11.18;;;9.20;;
19645;SDS011;9971;52.446;13.452;2023-03-03T22:55:03;12.67;;;10.03;;
19645;SDS011;9971;52.446;13.452;2023-03-03T23:00:07;11.17;;;9.30;;
19645;SDS011;9971;52.446;13.452;2023-03-03T23:05:09;9.63;;;8.63;;
19645;SDS011;9971;52.446;13.452;2023-03-03T23:10:12;14.40;;;10.72;;
19645;SDS011;9971;52.446;13.452;2023-03-03T23:15:14;10.70;;;9.10;;
19645;SDS011;9971;52.446;13.452;2023-03-03T23:20:17;10.50;;;9.38;;
19645;SDS011;9971;52.446;13.452;2023-03-03T23:25:18;11.23;;;9.37;;
19645;SDS011;9971;52.446;13.452;2023-03-03T23:30:20;11.35;;;9.40;;
19645;SDS011;9971;52.446;13.452;2023-03-03T23:35:22;11.83;;;10.00;;
19645;SDS011;9971;52.446;13.452;2023-03-03T23:40:24;12.93;;;10.45;;
19645;SDS011;9971;52.446;13.452;2023-03-03T23:45:27;12.23;;;9.73;;
19645;SDS011;9971;52.446;13.452;2023-03-03T23:50:29;10.63;;;9.40;;
19645;SDS011;9971;52.446;13.452;2023-03-03T23:55:32;11.28;;;9.33;;
